KDRT/DRT METAR and TAF weather

Enter ICAO airport designator
Station Type Date Time Source
KDRT METAR 2019/10/16 19:53 UTC NOAA

KDRT 161953Z AUTO 32006KT 10SM OVC039 21/07 A3014 RMK AO2 SLP192 T02110072


Station Type Date Time Source
KDRT Decoded METAR 2019/10/16 19:53 UTC NOAA

DEL RIO INTERNATIONAL AIRPORT, TX, United States (KDRT) 29-22N 100-55W 313M
Oct 16, 2019 - 03:53 PM EDT / 2019.10.16 1953 UTC
Wind: from the NW (320 degrees) at 7 MPH (6 KT):0
Visibility: 10 mile(s):0
Sky conditions: overcast
Temperature: 70.0 F (21.1 C)
Dew Point: 45.0 F (7.2 C)
Relative Humidity: 40%
Pressure (altimeter): 30.14 in. Hg (1020 hPa)
ob: KDRT 161953Z AUTO 32006KT 10SM OVC039 21/07 A3014 RMK AO2 SLP192 T02110072
cycle: 20

Station Type Date Time Source
KDRT TAF 2019/10/16 18:42 UTC NOAA

TAF KDRT 161739Z 1618/1718 36007KT P6SM OVC045
FM170600 04004KT P6SM VCSH SCT030 BKN080 BKN250
FM171500 12005KT P6SM BKN035

Example: see airport list